createdAt,value
2023-12-02T00:00:24.590Z,0.62
2023-12-02T00:01:14.629Z,0.61
2023-12-02T00:02:04.736Z,0.61
2023-12-02T00:02:54.806Z,0.63
2023-12-02T00:03:44.913Z,0.61
2023-12-02T00:04:34.838Z,0.60
2023-12-02T00:05:24.907Z,0.61
2023-12-02T00:06:14.982Z,0.60
2023-12-02T00:07:04.999Z,0.60
2023-12-02T00:07:55.032Z,0.61
2023-12-02T00:08:45.090Z,0.62
2023-12-02T00:09:35.197Z,0.62
2023-12-02T00:10:25.199Z,0.59
2023-12-02T00:11:15.277Z,0.60
2023-12-02T00:12:05.401Z,0.61
2023-12-02T00:12:55.383Z,0.60
2023-12-02T00:13:45.448Z,0.60
2023-12-02T00:14:35.521Z,0.60
2023-12-02T00:15:25.583Z,0.59
2023-12-02T00:16:15.662Z,0.59
2023-12-02T00:17:05.742Z,0.61
2023-12-02T00:17:55.902Z,0.61
2023-12-02T00:18:45.872Z,0.59
2023-12-02T00:19:35.897Z,0.60
2023-12-02T00:20:25.944Z,0.59
2023-12-02T00:21:16.033Z,0.60
2023-12-02T00:22:06.079Z,0.59
2023-12-02T00:22:56.122Z,0.58
2023-12-02T00:23:46.189Z,0.60
2023-12-02T00:24:36.251Z,0.59
2023-12-02T00:25:26.323Z,0.59
2023-12-02T00:26:16.381Z,0.58
2023-12-02T00:27:06.459Z,0.58
2023-12-02T00:27:56.485Z,0.59
2023-12-02T00:28:46.552Z,0.59
2023-12-02T00:29:36.625Z,0.58
2023-12-02T00:30:26.739Z,0.58
2023-12-02T00:31:16.742Z,0.59
2023-12-02T00:32:06.820Z,0.58
2023-12-02T00:32:57.013Z,0.58
2023-12-02T00:33:47.056Z,0.59
2023-12-02T00:34:37.092Z,0.58
2023-12-02T00:35:27.103Z,0.59
2023-12-02T00:36:17.246Z,0.58
2023-12-02T00:37:07.225Z,0.58
2023-12-02T00:37:57.264Z,0.58
2023-12-02T00:38:47.317Z,0.57
2023-12-02T00:39:37.436Z,0.58
2023-12-02T00:40:27.461Z,0.58
2023-12-02T00:41:17.519Z,0.57
2023-12-02T00:42:07.635Z,0.58
2023-12-02T00:42:57.632Z,0.59
2023-12-02T00:43:47.718Z,0.58
2023-12-02T00:44:37.756Z,0.59
2023-12-02T00:45:27.852Z,0.59
2023-12-02T00:46:17.885Z,0.58
2023-12-02T00:47:07.974Z,0.58
2023-12-02T00:47:58.038Z,0.57
2023-12-02T00:48:48.140Z,0.58
2023-12-02T00:49:38.179Z,0.58
2023-12-02T00:50:28.173Z,0.59
2023-12-02T00:51:18.262Z,0.58
2023-12-02T00:52:08.292Z,0.58
2023-12-02T00:52:58.322Z,0.58
2023-12-02T00:53:48.421Z,0.59
2023-12-02T00:54:38.520Z,0.57
2023-12-02T00:55:28.499Z,0.57
2023-12-02T00:56:18.558Z,0.58
2023-12-02T00:57:08.708Z,0.57
2023-12-02T00:57:58.691Z,0.56
2023-12-02T00:58:48.767Z,0.58
2023-12-02T00:59:38.836Z,0.57
2023-12-02T01:00:28.908Z,0.57
2023-12-02T01:01:18.962Z,0.58
2023-12-02T01:02:09.077Z,0.56
2023-12-02T01:02:59.097Z,0.56
2023-12-02T01:03:49.134Z,0.56
2023-12-02T01:04:39.331Z,0.56
2023-12-02T01:05:29.327Z,0.57
2023-12-02T01:06:19.334Z,0.57
2023-12-02T01:07:09.392Z,0.56
2023-12-02T01:07:59.421Z,0.57
2023-12-02T01:08:49.476Z,0.56
2023-12-02T01:09:39.574Z,0.56
2023-12-02T01:10:29.579Z,0.57
2023-12-02T01:11:19.648Z,0.56
2023-12-02T01:12:09.773Z,0.56
2023-12-02T01:12:59.794Z,0.56
2023-12-02T01:13:49.868Z,0.57
2023-12-02T01:14:39.926Z,0.56
2023-12-02T01:15:30.009Z,0.56
2023-12-02T01:16:20.047Z,0.56
2023-12-02T01:17:10.129Z,0.55
2023-12-02T01:18:00.348Z,0.56
2023-12-02T01:18:50.414Z,0.55
2023-12-02T01:19:40.281Z,0.55
2023-12-02T01:20:30.322Z,0.56
2023-12-02T01:21:20.427Z,0.55
2023-12-02T01:22:10.479Z,0.54
2023-12-02T01:23:00.508Z,0.56
2023-12-02T01:23:50.580Z,0.55
2023-12-02T01:24:40.643Z,0.55
2023-12-02T01:25:30.734Z,0.55
2023-12-02T01:26:20.775Z,0.56
2023-12-02T01:27:10.895Z,0.56
2023-12-02T01:28:00.900Z,0.56
2023-12-02T01:28:50.963Z,0.56
2023-12-02T01:29:41.030Z,0.57
2023-12-02T01:30:31.205Z,0.58
2023-12-02T01:31:21.149Z,0.56
2023-12-02T01:32:11.206Z,0.55
2023-12-02T01:33:01.305Z,0.55
2023-12-02T01:33:51.299Z,0.56
2023-12-02T01:34:41.393Z,0.55
2023-12-02T01:35:31.391Z,0.56
2023-12-02T01:36:21.486Z,0.56
2023-12-02T01:37:11.549Z,0.55
2023-12-02T01:38:01.583Z,0.56
2023-12-02T01:38:51.645Z,0.56
2023-12-02T01:39:41.736Z,0.56
2023-12-02T01:40:31.782Z,0.56
2023-12-02T01:41:21.885Z,0.56
2023-12-02T01:42:11.962Z,0.56
2023-12-02T01:43:01.970Z,0.55
2023-12-02T01:43:52.035Z,0.55
2023-12-02T01:44:42.120Z,0.55
2023-12-02T01:45:32.302Z,0.56
2023-12-02T01:46:22.219Z,0.55
2023-12-02T01:47:12.299Z,0.55
2023-12-02T01:48:03.418Z,0.56
2023-12-02T01:48:52.413Z,0.56
2023-12-02T01:49:42.485Z,0.55
2023-12-02T01:50:32.502Z,0.55
2023-12-02T01:51:22.547Z,0.54
2023-12-02T01:52:12.623Z,0.54
2023-12-02T01:53:02.619Z,0.55
2023-12-02T01:53:52.712Z,0.55
2023-12-02T01:54:42.765Z,0.54
2023-12-02T01:55:32.829Z,0.54
2023-12-02T01:56:23.931Z,0.55
2023-12-02T01:57:13.245Z,0.55
2023-12-02T01:58:03.229Z,0.54
2023-12-02T01:58:53.296Z,0.54
2023-12-02T01:59:43.370Z,0.54
2023-12-02T02:00:33.467Z,0.56
2023-12-02T02:01:23.493Z,0.54
2023-12-02T02:02:13.587Z,0.55
2023-12-02T02:03:03.678Z,0.55
2023-12-02T02:03:53.673Z,0.54
2023-12-02T02:04:43.806Z,0.55
2023-12-02T02:05:33.982Z,0.55
2023-12-02T02:06:23.930Z,0.55
2023-12-02T02:07:13.919Z,0.54
2023-12-02T02:08:03.946Z,0.54
2023-12-02T02:08:54.031Z,0.55
2023-12-02T02:09:44.099Z,0.53
2023-12-02T02:10:34.168Z,0.56
2023-12-02T02:11:24.236Z,0.55
2023-12-02T02:12:14.368Z,0.54
2023-12-02T02:13:04.387Z,0.55
2023-12-02T02:13:54.485Z,0.54
2023-12-02T02:14:44.501Z,0.54
2023-12-02T02:15:34.588Z,0.54
2023-12-02T02:16:24.599Z,0.55
2023-12-02T02:17:14.697Z,0.53
2023-12-02T02:18:04.868Z,0.53
2023-12-02T02:18:54.832Z,0.54
2023-12-02T02:19:44.911Z,0.56
2023-12-02T02:20:34.887Z,0.55
2023-12-02T02:21:24.964Z,0.53
2023-12-02T02:22:15.042Z,0.54
2023-12-02T02:23:05.068Z,0.54
2023-12-02T02:23:55.199Z,0.56
2023-12-02T02:24:45.177Z,0.55
2023-12-02T02:25:35.248Z,0.54
2023-12-02T02:26:25.317Z,0.55
2023-12-02T02:27:15.410Z,0.54
2023-12-02T02:28:05.435Z,0.54
2023-12-02T02:28:55.494Z,0.54
2023-12-02T02:29:45.540Z,0.55
2023-12-02T02:30:35.637Z,0.53
2023-12-02T02:31:25.682Z,0.54
2023-12-02T02:32:15.777Z,0.54
2023-12-02T02:33:05.903Z,0.54
2023-12-02T02:33:55.852Z,0.54
2023-12-02T02:34:45.936Z,0.53
2023-12-02T02:35:35.952Z,0.53
2023-12-02T02:36:26.055Z,0.54
2023-12-02T02:37:16.114Z,0.53
2023-12-02T02:38:06.155Z,0.52
2023-12-02T02:38:56.237Z,0.54
2023-12-02T02:39:46.278Z,0.53
2023-12-02T02:40:36.295Z,0.53
2023-12-02T02:41:26.370Z,0.51
2023-12-02T02:42:16.463Z,0.53
2023-12-02T02:43:06.493Z,0.53
2023-12-02T02:43:56.564Z,0.53
2023-12-02T02:44:46.653Z,0.53
2023-12-02T02:45:36.739Z,0.53
2023-12-02T02:46:26.772Z,0.53
2023-12-02T02:47:16.921Z,0.53
2023-12-02T02:48:07.104Z,0.53
2023-12-02T02:48:57.048Z,0.53
2023-12-02T02:49:47.058Z,0.53
2023-12-02T02:50:37.033Z,0.53
2023-12-02T02:51:27.221Z,0.52
2023-12-02T02:52:17.191Z,0.51
2023-12-02T02:53:07.213Z,0.54
2023-12-02T02:53:57.301Z,0.53
2023-12-02T02:54:47.316Z,0.52
2023-12-02T02:55:37.381Z,0.54
2023-12-02T02:56:27.532Z,0.53
2023-12-02T02:57:17.533Z,0.53
2023-12-02T02:58:07.576Z,0.54
2023-12-02T02:58:57.629Z,0.53
2023-12-02T02:59:47.695Z,0.52
2023-12-02T03:00:37.832Z,0.53
2023-12-02T03:01:27.999Z,0.51
2023-12-02T03:02:17.879Z,0.52
2023-12-02T03:03:07.939Z,0.53
2023-12-02T03:03:58.032Z,0.52
2023-12-02T03:04:48.025Z,0.53
2023-12-02T03:05:38.044Z,0.53
2023-12-02T03:06:28.313Z,0.52
2023-12-02T03:07:18.220Z,0.52
2023-12-02T03:08:08.249Z,0.52
2023-12-02T03:08:58.362Z,0.52
2023-12-02T03:09:48.395Z,0.52
2023-12-02T03:10:38.463Z,0.52
2023-12-02T03:11:28.533Z,0.53
2023-12-02T03:12:18.620Z,0.52
2023-12-02T03:13:08.634Z,0.53
2023-12-02T03:13:58.698Z,0.51
2023-12-02T03:14:51.298Z,0.53
2023-12-02T03:15:38.866Z,0.53
2023-12-02T03:16:28.880Z,0.53
2023-12-02T03:17:18.925Z,0.53
2023-12-02T03:18:09.069Z,0.53
2023-12-02T03:18:59.023Z,0.53
2023-12-02T03:19:49.028Z,0.53
2023-12-02T03:20:39.080Z,0.53
2023-12-02T03:21:29.185Z,0.53
2023-12-02T03:22:19.234Z,0.53
2023-12-02T03:23:10.313Z,0.51
2023-12-02T03:23:59.350Z,0.51
2023-12-02T03:24:49.344Z,0.51
2023-12-02T03:25:39.400Z,0.52
2023-12-02T03:26:29.472Z,0.51
2023-12-02T03:27:19.581Z,0.52
2023-12-02T03:28:09.588Z,0.51
2023-12-02T03:28:59.655Z,0.52
2023-12-02T03:29:50.764Z,0.51
2023-12-02T03:30:39.870Z,0.52
2023-12-02T03:31:29.858Z,0.51
2023-12-02T03:32:19.926Z,0.52
2023-12-02T03:33:09.984Z,0.51
2023-12-02T03:34:00.077Z,0.51
2023-12-02T03:34:50.099Z,0.52
2023-12-02T03:35:40.135Z,0.50
2023-12-02T03:36:30.237Z,0.51
2023-12-02T03:37:20.269Z,0.52
2023-12-02T03:38:10.353Z,0.52
2023-12-02T03:39:00.436Z,0.52
2023-12-02T03:39:50.473Z,0.52
2023-12-02T03:40:40.568Z,0.52
2023-12-02T03:41:30.579Z,0.52
2023-12-02T03:42:20.683Z,0.53
2023-12-02T03:43:10.687Z,0.52
2023-12-02T03:44:00.752Z,0.50
2023-12-02T03:44:50.822Z,0.51
2023-12-02T03:45:40.909Z,0.51
2023-12-02T03:46:30.966Z,0.52
2023-12-02T03:47:21.046Z,0.51
2023-12-02T03:48:11.199Z,0.51
2023-12-02T03:49:01.210Z,0.52
2023-12-02T03:49:51.175Z,0.53
2023-12-02T03:50:41.244Z,0.51
2023-12-02T03:51:31.321Z,0.52
2023-12-02T03:52:21.410Z,0.50
2023-12-02T03:53:11.492Z,0.51
2023-12-02T03:54:01.573Z,0.51
2023-12-02T03:54:51.521Z,0.51
2023-12-02T03:55:41.594Z,0.51
2023-12-02T03:56:31.656Z,0.51
2023-12-02T03:57:21.813Z,0.49
2023-12-02T03:58:11.785Z,0.52
2023-12-02T03:59:01.864Z,0.52
2023-12-02T03:59:51.886Z,0.51
2023-12-02T04:00:42.015Z,0.52
2023-12-02T04:01:32.113Z,0.50
2023-12-02T04:02:22.080Z,0.52
2023-12-02T04:03:12.161Z,0.52
2023-12-02T04:04:02.202Z,0.51
2023-12-02T04:04:52.284Z,0.53
2023-12-02T04:05:42.319Z,0.51
2023-12-02T04:06:32.490Z,0.52
2023-12-02T04:07:22.529Z,0.53
2023-12-02T04:08:12.513Z,0.52
2023-12-02T04:09:02.594Z,0.52
2023-12-02T04:09:52.592Z,0.51
2023-12-02T04:10:42.666Z,0.52
2023-12-02T04:11:32.741Z,0.51
2023-12-02T04:12:22.852Z,0.52
2023-12-02T04:13:12.864Z,0.52
2023-12-02T04:14:02.946Z,0.51
2023-12-02T04:14:53.062Z,0.52
2023-12-02T04:15:43.134Z,0.52
2023-12-02T04:16:33.138Z,0.53
2023-12-02T04:17:23.213Z,0.51
2023-12-02T04:18:13.307Z,0.51
2023-12-02T04:19:03.370Z,0.52
2023-12-02T04:19:53.428Z,0.53
2023-12-02T04:20:43.389Z,0.52
2023-12-02T04:21:33.564Z,0.51
2023-12-02T04:22:23.526Z,0.52
2023-12-02T04:23:13.542Z,0.51
2023-12-02T04:24:03.650Z,0.51
2023-12-02T04:24:53.678Z,0.50
2023-12-02T04:25:43.753Z,0.52
2023-12-02T04:26:33.820Z,0.52
2023-12-02T04:27:24.002Z,0.51
2023-12-02T04:28:13.949Z,0.51
2023-12-02T04:29:04.021Z,0.51
2023-12-02T04:29:54.083Z,0.52
2023-12-02T04:30:44.179Z,0.51
2023-12-02T04:31:34.233Z,0.51
2023-12-02T04:32:24.307Z,0.51
2023-12-02T04:33:14.371Z,0.51
2023-12-02T04:34:04.494Z,0.51
2023-12-02T04:34:54.413Z,0.51
2023-12-02T04:35:45.010Z,0.50
2023-12-02T04:36:34.552Z,0.52
2023-12-02T04:37:24.591Z,0.51
2023-12-02T04:38:14.620Z,0.51
2023-12-02T04:39:04.735Z,0.51
2023-12-02T04:39:54.749Z,0.51
2023-12-02T04:40:44.824Z,0.54
2023-12-02T04:41:34.884Z,0.52
2023-12-02T04:42:25.022Z,0.51
2023-12-02T04:43:15.027Z,0.52
2023-12-02T04:44:05.084Z,0.52
2023-12-02T04:44:55.155Z,0.52
2023-12-02T04:45:45.227Z,0.52
2023-12-02T04:46:35.296Z,0.52
2023-12-02T04:47:25.418Z,0.52
2023-12-02T04:48:15.486Z,0.52
2023-12-02T04:49:05.543Z,0.52
2023-12-02T04:49:55.549Z,0.52
2023-12-02T04:50:45.619Z,0.51
2023-12-02T04:51:35.744Z,0.52
2023-12-02T04:52:25.765Z,0.52
2023-12-02T04:53:15.787Z,0.51
2023-12-02T04:54:05.929Z,0.52
2023-12-02T04:54:55.945Z,0.52
2023-12-02T04:55:45.980Z,0.51
2023-12-02T04:56:36.050Z,0.52
2023-12-02T04:57:26.167Z,0.51
2023-12-02T04:58:16.171Z,0.51
2023-12-02T04:59:06.295Z,0.52
2023-12-02T04:59:56.440Z,0.51
2023-12-02T05:00:46.394Z,0.52
2023-12-02T05:01:36.443Z,0.51
2023-12-02T05:02:26.533Z,0.52
2023-12-02T05:03:16.619Z,0.51
2023-12-02T05:04:06.633Z,0.51
2023-12-02T05:04:56.623Z,0.52
2023-12-02T05:05:46.691Z,0.51
2023-12-02T05:06:36.968Z,0.52
2023-12-02T05:07:26.839Z,0.53
2023-12-02T05:08:16.844Z,0.52
2023-12-02T05:09:06.950Z,0.52
2023-12-02T05:09:56.946Z,0.52
2023-12-02T05:10:47.020Z,0.52
2023-12-02T05:11:37.085Z,0.51
2023-12-02T05:12:27.241Z,0.52
2023-12-02T05:13:17.220Z,0.52
2023-12-02T05:14:07.285Z,0.51
2023-12-02T05:14:57.354Z,0.51
2023-12-02T05:15:47.518Z,0.52
2023-12-02T05:16:37.491Z,0.52
2023-12-02T05:17:27.575Z,0.51
2023-12-02T05:18:17.736Z,0.51
2023-12-02T05:19:07.714Z,0.52
2023-12-02T05:19:57.714Z,0.52
2023-12-02T05:20:47.785Z,0.52
2023-12-02T05:21:37.926Z,0.53
2023-12-02T05:22:27.941Z,0.52
2023-12-02T05:23:18.011Z,0.53
2023-12-02T05:24:08.062Z,0.53
2023-12-02T05:24:58.106Z,0.54
2023-12-02T05:25:48.180Z,0.52
2023-12-02T05:26:38.250Z,0.52
2023-12-02T05:27:28.455Z,0.52
2023-12-02T05:28:18.381Z,0.52
2023-12-02T05:29:08.456Z,0.53
2023-12-02T05:29:58.576Z,0.51
2023-12-02T05:30:48.589Z,0.51
2023-12-02T05:31:38.594Z,0.52
2023-12-02T05:32:28.712Z,0.52
2023-12-02T05:33:18.898Z,0.52
2023-12-02T05:34:08.819Z,0.52
2023-12-02T05:34:58.811Z,0.52
2023-12-02T05:35:48.889Z,0.52
2023-12-02T05:36:38.964Z,0.53
2023-12-02T05:37:29.040Z,0.52
2023-12-02T05:38:19.086Z,0.52
2023-12-02T05:39:09.191Z,0.51
2023-12-02T05:39:59.192Z,0.52
2023-12-02T05:40:49.261Z,0.52
2023-12-02T05:41:39.326Z,0.52
2023-12-02T05:42:29.473Z,0.52
2023-12-02T05:43:19.464Z,0.52
2023-12-02T05:44:09.533Z,0.51
2023-12-02T05:44:59.669Z,0.52
2023-12-02T05:45:50.689Z,0.52
2023-12-02T05:46:39.695Z,0.53
2023-12-02T05:47:29.880Z,0.52
2023-12-02T05:48:19.934Z,0.52
2023-12-02T05:49:09.934Z,0.51
2023-12-02T05:49:59.918Z,0.51
2023-12-02T05:50:50.017Z,0.51
2023-12-02T05:51:40.210Z,0.52
2023-12-02T05:52:30.100Z,0.52
2023-12-02T05:53:20.133Z,0.53
2023-12-02T05:54:10.215Z,0.53
2023-12-02T05:55:00.282Z,0.52
2023-12-02T05:55:50.341Z,0.52
2023-12-02T05:56:40.403Z,0.51
2023-12-02T05:57:30.588Z,0.52
2023-12-02T05:58:20.518Z,0.53
2023-12-02T05:59:10.593Z,0.52
2023-12-02T06:00:00.694Z,0.52
2023-12-02T06:00:50.727Z,0.52
2023-12-02T06:01:40.819Z,0.52
2023-12-02T06:02:30.880Z,0.52
2023-12-02T06:03:20.962Z,0.51
2023-12-02T06:04:11.142Z,0.52
2023-12-02T06:05:01.081Z,0.51
2023-12-02T06:05:51.076Z,0.52
2023-12-02T06:06:41.204Z,0.50
2023-12-02T06:07:31.205Z,0.52
2023-12-02T06:08:21.241Z,0.52
2023-12-02T06:09:11.365Z,0.51
2023-12-02T06:10:01.343Z,0.52
2023-12-02T06:10:51.428Z,0.52
2023-12-02T06:11:41.474Z,0.51
2023-12-02T06:12:31.639Z,0.52
2023-12-02T06:13:21.600Z,0.52
2023-12-02T06:14:11.681Z,0.51
2023-12-02T06:15:01.776Z,0.53
2023-12-02T06:15:51.787Z,0.51
2023-12-02T06:16:41.850Z,0.50
2023-12-02T06:17:31.990Z,0.52
2023-12-02T06:18:22.063Z,0.52
2023-12-02T06:19:12.140Z,0.51
2023-12-02T06:20:04.684Z,0.52
2023-12-02T06:20:52.148Z,0.52
2023-12-02T06:21:42.244Z,0.52
2023-12-02T06:22:32.278Z,0.52
2023-12-02T06:23:22.298Z,0.52
2023-12-02T06:24:12.465Z,0.52
2023-12-02T06:25:02.534Z,0.51
2023-12-02T06:25:52.515Z,0.52
2023-12-02T06:26:42.589Z,0.52
2023-12-02T06:27:32.729Z,0.52
2023-12-02T06:28:22.684Z,0.51
2023-12-02T06:29:12.760Z,0.52
2023-12-02T06:30:02.911Z,0.51
2023-12-02T06:30:52.972Z,0.52
2023-12-02T06:31:42.934Z,0.51
2023-12-02T06:32:33.039Z,0.53
2023-12-02T06:33:23.149Z,0.51
2023-12-02T06:34:13.091Z,0.53
2023-12-02T06:35:03.203Z,0.51
2023-12-02T06:35:53.223Z,0.52
2023-12-02T06:36:43.260Z,0.51
2023-12-02T06:37:33.348Z,0.51
2023-12-02T06:38:23.406Z,0.52
2023-12-02T06:39:13.587Z,0.52
2023-12-02T06:40:03.494Z,0.51
2023-12-02T06:40:53.584Z,0.52
2023-12-02T06:41:43.621Z,0.52
2023-12-02T06:42:33.743Z,0.51
2023-12-02T06:43:23.726Z,0.50
2023-12-02T06:44:13.808Z,0.52
2023-12-02T06:45:03.866Z,0.51
2023-12-02T06:45:53.929Z,0.52
2023-12-02T06:46:43.991Z,0.51
2023-12-02T06:47:34.123Z,0.51
2023-12-02T06:48:24.133Z,0.52
2023-12-02T06:49:14.222Z,0.53
2023-12-02T06:50:04.250Z,0.53
2023-12-02T06:50:54.289Z,0.53
2023-12-02T06:51:44.370Z,0.56
2023-12-02T06:52:34.465Z,0.56
2023-12-02T06:53:24.464Z,0.55
2023-12-02T06:54:14.629Z,0.55
2023-12-02T06:55:54.775Z,0.57
2023-12-02T06:56:44.674Z,0.57
2023-12-02T06:57:34.868Z,0.56
2023-12-02T06:58:24.832Z,0.57
2023-12-02T06:59:14.933Z,0.57
2023-12-02T07:00:05.021Z,0.57
2023-12-02T07:00:54.996Z,0.57
2023-12-02T07:01:45.015Z,0.58
2023-12-02T07:02:35.174Z,0.58
2023-12-02T07:03:25.213Z,0.58
2023-12-02T07:04:15.328Z,0.57
2023-12-02T07:05:05.230Z,0.60
2023-12-02T07:05:55.372Z,0.66
2023-12-02T07:06:45.416Z,0.77
2023-12-02T07:07:35.512Z,0.94
2023-12-02T07:08:25.490Z,1.19
2023-12-02T07:09:15.637Z,1.40
2023-12-02T07:10:05.610Z,1.62
2023-12-02T07:10:55.773Z,1.81
2023-12-02T07:11:45.703Z,1.96
2023-12-02T07:12:35.892Z,2.09
2023-12-02T07:13:25.835Z,2.23
2023-12-02T07:14:15.987Z,2.29
2023-12-02T07:15:05.994Z,2.29
2023-12-02T07:15:56.109Z,2.31
2023-12-02T07:16:46.053Z,2.28
2023-12-02T07:17:37.282Z,2.25
2023-12-02T07:18:26.245Z,2.28
2023-12-02T07:19:16.466Z,2.30
2023-12-02T07:20:06.327Z,2.20
2023-12-02T07:20:56.452Z,2.22
2023-12-02T07:21:46.402Z,2.18
2023-12-02T07:22:36.536Z,2.18
2023-12-02T07:23:26.513Z,2.20
2023-12-02T07:24:16.699Z,2.18
2023-12-02T07:25:06.668Z,2.21
2023-12-02T07:25:56.795Z,2.19
2023-12-02T07:26:46.778Z,2.13
2023-12-02T07:27:36.921Z,2.13
2023-12-02T07:28:26.905Z,2.13
2023-12-02T07:29:16.991Z,2.11
2023-12-02T07:30:57.191Z,2.12
2023-12-02T07:31:47.356Z,2.10
2023-12-02T07:32:37.542Z,2.11
2023-12-02T07:33:27.527Z,2.11
2023-12-02T07:34:17.512Z,2.04
2023-12-02T07:35:07.579Z,2.09
2023-12-02T07:35:57.698Z,2.04
2023-12-02T07:36:47.714Z,2.07
2023-12-02T07:37:37.855Z,2.09
2023-12-02T07:38:27.838Z,2.07
2023-12-02T07:39:17.892Z,2.00
2023-12-02T07:40:07.942Z,2.04
2023-12-02T07:40:58.119Z,2.01
2023-12-02T07:41:48.081Z,2.03
2023-12-02T07:42:38.218Z,1.97
2023-12-02T07:43:28.261Z,2.01
2023-12-02T07:44:18.412Z,1.94
2023-12-02T07:45:08.317Z,1.93
2023-12-02T07:45:58.536Z,1.90
2023-12-02T07:46:48.433Z,1.90
2023-12-02T07:47:38.586Z,1.88
2023-12-02T07:48:28.693Z,1.90
2023-12-02T07:49:18.704Z,1.90
2023-12-02T07:50:08.716Z,1.84
2023-12-02T07:50:58.739Z,1.82
2023-12-02T07:51:48.787Z,1.83
2023-12-02T07:52:39.904Z,1.77
2023-12-02T07:53:28.887Z,1.77
2023-12-02T07:54:19.062Z,1.81
2023-12-02T07:55:09.002Z,1.76
2023-12-02T07:55:59.097Z,1.76
2023-12-02T07:56:49.110Z,1.76
2023-12-02T07:57:39.212Z,1.73
2023-12-02T07:58:29.289Z,1.67
2023-12-02T07:59:19.393Z,1.70
2023-12-02T08:00:09.325Z,1.66
2023-12-02T08:00:59.410Z,1.72
2023-12-02T08:01:49.626Z,1.68
2023-12-02T08:02:39.638Z,1.66
2023-12-02T08:03:29.553Z,1.66
2023-12-02T08:04:19.746Z,1.65
2023-12-02T08:05:59.834Z,1.64
2023-12-02T08:06:49.796Z,1.60
2023-12-02T08:07:39.939Z,1.63
2023-12-02T08:08:29.928Z,1.62
2023-12-02T08:09:20.078Z,1.57
2023-12-02T08:10:10.053Z,1.56
2023-12-02T08:11:00.246Z,1.58
2023-12-02T08:11:50.199Z,1.55
2023-12-02T08:12:40.353Z,1.53
2023-12-02T08:13:30.351Z,1.53
2023-12-02T08:14:20.420Z,1.49
2023-12-02T08:15:10.436Z,1.53
2023-12-02T08:16:00.550Z,1.53
2023-12-02T08:16:50.641Z,1.51
2023-12-02T08:17:40.797Z,1.51
2023-12-02T08:18:30.713Z,1.55
2023-12-02T08:19:20.876Z,1.57
2023-12-02T08:20:10.918Z,1.55
2023-12-02T08:21:00.907Z,1.58
2023-12-02T08:21:50.901Z,1.53
2023-12-02T08:22:41.098Z,1.51
2023-12-02T08:23:31.039Z,1.46
2023-12-02T08:24:21.211Z,1.50
2023-12-02T08:25:11.148Z,1.49
2023-12-02T08:26:01.246Z,1.46
2023-12-02T08:26:51.245Z,1.48
2023-12-02T08:27:41.375Z,1.49
2023-12-02T08:28:31.368Z,1.45
2023-12-02T08:29:21.460Z,1.47
2023-12-02T08:30:11.482Z,1.45
2023-12-02T08:31:01.570Z,1.48
2023-12-02T08:31:53.368Z,1.46
2023-12-02T08:32:41.733Z,1.45
2023-12-02T08:33:31.712Z,1.43
2023-12-02T08:34:21.829Z,1.44
2023-12-02T08:35:11.829Z,1.45
2023-12-02T08:36:01.927Z,1.45
2023-12-02T08:36:51.886Z,1.43
2023-12-02T08:37:42.008Z,1.42
2023-12-02T08:38:32.015Z,1.40
2023-12-02T08:39:22.137Z,1.37
2023-12-02T08:40:12.134Z,1.40
2023-12-02T08:41:02.353Z,1.37
2023-12-02T08:41:52.269Z,1.37
2023-12-02T08:42:42.307Z,1.38
2023-12-02T08:43:32.373Z,1.38
2023-12-02T08:44:22.490Z,1.36
2023-12-02T08:45:12.424Z,1.34
2023-12-02T08:46:02.506Z,1.33
2023-12-02T08:46:52.557Z,1.35
2023-12-02T08:47:42.691Z,1.30
2023-12-02T08:48:32.642Z,1.31
2023-12-02T08:49:22.850Z,1.29
2023-12-02T08:50:12.839Z,1.31
2023-12-02T08:51:02.840Z,1.28
2023-12-02T08:51:52.863Z,1.29
2023-12-02T08:52:43.029Z,1.25
2023-12-02T08:53:32.973Z,1.28
2023-12-02T08:54:23.070Z,1.27
2023-12-02T08:55:14.852Z,1.23
2023-12-02T08:56:03.216Z,1.23
2023-12-02T08:56:53.192Z,1.24
2023-12-02T08:57:43.349Z,1.24
2023-12-02T08:58:33.358Z,1.24
2023-12-02T08:59:23.405Z,1.22
2023-12-02T09:00:13.429Z,1.21
2023-12-02T09:01:03.524Z,1.24
2023-12-02T09:01:53.655Z,1.26
2023-12-02T09:02:43.740Z,1.21
2023-12-02T09:03:33.700Z,1.23
2023-12-02T09:04:23.757Z,1.23
2023-12-02T09:05:13.796Z,1.22
2023-12-02T09:06:03.887Z,1.21
2023-12-02T09:06:53.891Z,1.21
2023-12-02T09:07:44.126Z,1.21
2023-12-02T09:08:34.082Z,1.20
2023-12-02T09:09:24.234Z,1.20
2023-12-02T09:10:14.132Z,1.25
2023-12-02T09:11:04.237Z,1.22
2023-12-02T09:11:56.037Z,1.19
2023-12-02T09:12:44.404Z,1.21
2023-12-02T09:13:34.400Z,1.18
2023-12-02T09:14:24.550Z,1.21
2023-12-02T09:15:14.531Z,1.18
2023-12-02T09:16:04.658Z,1.17
2023-12-02T09:16:54.671Z,1.20
2023-12-02T09:17:44.722Z,1.17
2023-12-02T09:18:34.785Z,1.16
2023-12-02T09:19:24.885Z,1.15
2023-12-02T09:20:14.864Z,1.15
2023-12-02T09:21:04.939Z,1.19
2023-12-02T09:21:54.922Z,1.14
2023-12-02T09:22:45.094Z,1.14
2023-12-02T09:23:35.052Z,1.15
2023-12-02T09:24:25.247Z,1.14
2023-12-02T09:25:15.168Z,1.16
2023-12-02T09:26:05.295Z,1.11
2023-12-02T09:26:55.280Z,1.13
2023-12-02T09:27:45.391Z,1.14
2023-12-02T09:28:35.430Z,1.11
2023-12-02T09:29:25.570Z,1.11
2023-12-02T09:30:15.554Z,1.12
2023-12-02T09:31:08.829Z,1.12
2023-12-02T09:31:55.714Z,1.11
2023-12-02T09:32:45.784Z,1.11
2023-12-02T09:33:35.808Z,1.11
2023-12-02T09:34:26.007Z,1.10
2023-12-02T09:35:15.961Z,1.10
2023-12-02T09:36:06.037Z,1.09
2023-12-02T09:36:56.000Z,1.10
2023-12-02T09:37:46.179Z,1.12
2023-12-02T09:38:36.087Z,1.13
2023-12-02T09:39:26.259Z,1.11
2023-12-02T09:40:16.197Z,1.09
2023-12-02T09:41:06.304Z,1.10
2023-12-02T09:41:56.301Z,1.08
2023-12-02T09:42:46.423Z,1.09
2023-12-02T09:43:36.461Z,1.08
2023-12-02T09:44:26.516Z,1.11
2023-12-02T09:45:16.478Z,1.11
2023-12-02T09:46:06.622Z,1.10
2023-12-02T09:46:56.652Z,1.10
2023-12-02T09:47:46.809Z,1.09
2023-12-02T09:48:36.802Z,1.07
2023-12-02T09:49:26.938Z,1.08
2023-12-02T09:50:17.847Z,1.07
2023-12-02T09:51:06.879Z,1.07
2023-12-02T09:51:56.940Z,1.06
2023-12-02T09:52:47.178Z,1.07
2023-12-02T09:53:37.064Z,1.07
2023-12-02T09:54:27.184Z,1.07
2023-12-02T09:55:17.207Z,1.06
2023-12-02T09:56:07.346Z,1.05
2023-12-02T09:56:57.351Z,1.05
2023-12-02T09:57:47.453Z,1.04
2023-12-02T09:58:37.484Z,1.04
2023-12-02T09:59:27.602Z,1.04
2023-12-02T10:00:17.596Z,1.05
2023-12-02T10:01:14.130Z,1.03
2023-12-02T10:01:57.885Z,1.03
2023-12-02T10:02:47.882Z,1.03
2023-12-02T10:03:37.883Z,1.04
2023-12-02T10:04:28.016Z,1.04
2023-12-02T10:05:18.131Z,1.03
2023-12-02T10:06:08.066Z,1.05
2023-12-02T10:06:58.167Z,1.03
2023-12-02T10:07:48.243Z,1.03
2023-12-02T10:08:38.339Z,1.03
2023-12-02T10:09:28.315Z,1.01
2023-12-02T10:10:18.395Z,1.01
2023-12-02T10:11:08.453Z,1.01
2023-12-02T10:11:58.514Z,1.02
2023-12-02T10:12:48.532Z,1.01
2023-12-02T10:13:38.687Z,1.03
2023-12-02T10:14:28.696Z,1.01
2023-12-02T10:15:18.834Z,1.03
2023-12-02T10:16:08.774Z,1.00
2023-12-02T10:16:58.978Z,1.00
2023-12-02T10:17:48.944Z,1.01
2023-12-02T10:18:39.035Z,1.01
2023-12-02T10:19:29.047Z,1.01
2023-12-02T10:20:21.485Z,0.99
2023-12-02T10:21:09.140Z,0.99
2023-12-02T10:21:59.300Z,0.99
2023-12-02T10:22:49.341Z,0.99
2023-12-02T10:23:39.449Z,0.99
2023-12-02T10:24:29.460Z,1.00
2023-12-02T10:25:19.525Z,0.99
2023-12-02T10:26:09.565Z,1.00
2023-12-02T10:26:59.650Z,1.02
2023-12-02T10:27:49.666Z,1.00
2023-12-02T10:28:39.845Z,0.99
2023-12-02T10:29:29.779Z,1.00
2023-12-02T10:30:19.873Z,1.01
2023-12-02T10:31:09.882Z,0.99
2023-12-02T10:32:00.027Z,1.03
2023-12-02T10:32:50.017Z,1.03
2023-12-02T10:33:40.133Z,1.00
2023-12-02T10:34:30.350Z,1.03
2023-12-02T10:35:20.282Z,0.99
2023-12-02T10:36:10.253Z,1.01
2023-12-02T10:37:00.436Z,1.00
2023-12-02T10:37:50.429Z,1.01
2023-12-02T10:38:40.482Z,1.01
2023-12-02T10:39:30.512Z,1.03
2023-12-02T10:40:20.678Z,1.01
2023-12-02T10:41:10.680Z,1.02
2023-12-02T10:42:00.756Z,1.04
2023-12-02T10:42:50.811Z,1.01
2023-12-02T10:43:40.861Z,1.02
2023-12-02T10:44:30.877Z,1.00
2023-12-02T10:45:21.028Z,1.00
2023-12-02T10:46:11.030Z,1.00
2023-12-02T10:47:01.191Z,1.01
2023-12-02T10:47:51.121Z,1.00
2023-12-02T10:48:41.245Z,1.00
2023-12-02T10:49:31.273Z,1.01
2023-12-02T10:50:21.352Z,1.01
2023-12-02T10:51:11.307Z,0.99
2023-12-02T10:52:52.674Z,0.99
2023-12-02T10:53:41.547Z,1.00
2023-12-02T10:54:31.514Z,1.00
2023-12-02T10:55:21.674Z,0.99
2023-12-02T10:56:11.647Z,1.00
2023-12-02T10:57:01.737Z,0.99
2023-12-02T10:57:51.716Z,0.99
2023-12-02T10:58:41.774Z,0.99
2023-12-02T10:59:31.804Z,0.98
2023-12-02T11:00:22.008Z,0.99
2023-12-02T11:01:12.029Z,0.97
2023-12-02T11:02:02.104Z,1.00
2023-12-02T11:02:52.049Z,0.99
2023-12-02T11:03:42.193Z,0.97
2023-12-02T11:04:32.244Z,0.96
2023-12-02T11:05:22.371Z,0.98
2023-12-02T11:06:12.323Z,0.96
2023-12-02T11:07:02.449Z,0.96
2023-12-02T11:07:52.352Z,0.96
2023-12-02T11:08:42.435Z,0.98
2023-12-02T11:09:32.472Z,0.97